sensor_id;sensor_type;location;lat;lon;timestamp;P1;durP1;ratioP1;P2;durP2;ratioP2
45314;SDS011;31051;51.540;5.852;2023-10-19T00:02:12;14.1;;;12.8;;
45314;SDS011;31051;51.540;5.852;2023-10-19T00:15:12;13.4;;;12.1;;
45314;SDS011;31051;51.540;5.852;2023-10-19T00:28:11;13.2;;;12.0;;
45314;SDS011;31051;51.540;5.852;2023-10-19T00:41:10;13.0;;;11.7;;
45314;SDS011;31051;51.540;5.852;2023-10-19T00:54:10;12.3;;;11.2;;
45314;SDS011;31051;51.540;5.852;2023-10-19T01:07:09;11.7;;;10.6;;
45314;SDS011;31051;51.540;5.852;2023-10-19T01:20:08;11.4;;;10.4;;
45314;SDS011;31051;51.540;5.852;2023-10-19T01:33:08;10.7;;;9.7;;
45314;SDS011;31051;51.540;5.852;2023-10-19T01:46:07;11.3;;;10.2;;
45314;SDS011;31051;51.540;5.852;2023-10-19T01:59:06;11.2;;;10.0;;
45314;SDS011;31051;51.540;5.852;2023-10-19T02:12:06;9.5;;;8.7;;
45314;SDS011;31051;51.540;5.852;2023-10-19T02:25:05;10.0;;;9.0;;
45314;SDS011;31051;51.540;5.852;2023-10-19T02:38:04;9.5;;;8.5;;
45314;SDS011;31051;51.540;5.852;2023-10-19T02:51:04;8.2;;;7.4;;
45314;SDS011;31051;51.540;5.852;2023-10-19T03:04:03;7.0;;;6.3;;
45314;SDS011;31051;51.540;5.852;2023-10-19T03:17:02;6.3;;;5.6;;
45314;SDS011;31051;51.540;5.852;2023-10-19T03:30:02;5.4;;;4.9;;
45314;SDS011;31051;51.540;5.852;2023-10-19T03:43:01;5.1;;;4.3;;
45314;SDS011;31051;51.540;5.852;2023-10-19T03:56:00;5.8;;;3.9;;
45314;SDS011;31051;51.540;5.852;2023-10-19T04:09:00;4.8;;;3.4;;
45314;SDS011;31051;51.540;5.852;2023-10-19T04:21:59;4.9;;;3.4;;
45314;SDS011;31051;51.540;5.852;2023-10-19T04:34:59;5.5;;;3.0;;
45314;SDS011;31051;51.540;5.852;2023-10-19T04:47:58;4.9;;;2.3;;
45314;SDS011;31051;51.540;5.852;2023-10-19T05:00:57;5.3;;;2.0;;
45314;SDS011;31051;51.540;5.852;2023-10-19T05:13:57;4.8;;;1.7;;
45314;SDS011;31051;51.540;5.852;2023-10-19T05:26:56;5.7;;;1.8;;
45314;SDS011;31051;51.540;5.852;2023-10-19T05:39:55;5.0;;;1.8;;
45314;SDS011;31051;51.540;5.852;2023-10-19T05:52:55;5.5;;;1.7;;
45314;SDS011;31051;51.540;5.852;2023-10-19T06:05:54;5.7;;;1.8;;
45314;SDS011;31051;51.540;5.852;2023-10-19T06:18:54;5.2;;;1.8;;
45314;SDS011;31051;51.540;5.852;2023-10-19T06:31:53;5.7;;;1.9;;
45314;SDS011;31051;51.540;5.852;2023-10-19T06:44:52;5.8;;;2.0;;
45314;SDS011;31051;51.540;5.852;2023-10-19T06:57:52;6.2;;;2.1;;
45314;SDS011;31051;51.540;5.852;2023-10-19T07:10:51;6.2;;;1.9;;
45314;SDS011;31051;51.540;5.852;2023-10-19T07:23:50;7.6;;;2.5;;
45314;SDS011;31051;51.540;5.852;2023-10-19T07:36:50;7.4;;;2.5;;
45314;SDS011;31051;51.540;5.852;2023-10-19T07:49:49;7.7;;;2.6;;
45314;SDS011;31051;51.540;5.852;2023-10-19T08:02:48;8.2;;;2.6;;
45314;SDS011;31051;51.540;5.852;2023-10-19T08:15:47;6.9;;;2.4;;
45314;SDS011;31051;51.540;5.852;2023-10-19T08:28:36;7.9;;;2.3;;
45314;SDS011;31051;51.540;5.852;2023-10-19T08:41:35;9.1;;;2.4;;
45314;SDS011;31051;51.540;5.852;2023-10-19T08:54:24;8.1;;;2.4;;
45314;SDS011;31051;51.540;5.852;2023-10-19T09:07:22;6.8;;;2.3;;
45314;SDS011;31051;51.540;5.852;2023-10-19T09:20:12;7.1;;;2.2;;
45314;SDS011;31051;51.540;5.852;2023-10-19T09:33:11;7.6;;;2.2;;
45314;SDS011;31051;51.540;5.852;2023-10-19T09:46:10;7.5;;;2.3;;
45314;SDS011;31051;51.540;5.852;2023-10-19T09:59:09;7.5;;;2.2;;
45314;SDS011;31051;51.540;5.852;2023-10-19T10:11:57;8.4;;;2.3;;
45314;SDS011;31051;51.540;5.852;2023-10-19T10:24:46;7.6;;;2.3;;
45314;SDS011;31051;51.540;5.852;2023-10-19T10:37:46;9.0;;;2.6;;
45314;SDS011;31051;51.540;5.852;2023-10-19T10:50:44;10.0;;;2.6;;
45314;SDS011;31051;51.540;5.852;2023-10-19T11:03:34;8.8;;;2.6;;
45314;SDS011;31051;51.540;5.852;2023-10-19T11:16:32;9.3;;;2.7;;
45314;SDS011;31051;51.540;5.852;2023-10-19T11:29:20;8.3;;;2.6;;
45314;SDS011;31051;51.540;5.852;2023-10-19T11:42:10;9.5;;;2.5;;
45314;SDS011;31051;51.540;5.852;2023-10-19T11:55:08;8.7;;;2.6;;
45314;SDS011;31051;51.540;5.852;2023-10-19T12:07:57;9.5;;;2.6;;
45314;SDS011;31051;51.540;5.852;2023-10-19T12:20:45;11.0;;;2.6;;
45314;SDS011;31051;51.540;5.852;2023-10-19T12:33:34;8.0;;;2.4;;
45314;SDS011;31051;51.540;5.852;2023-10-19T12:46:34;9.8;;;2.8;;
45314;SDS011;31051;51.540;5.852;2023-10-19T12:59:32;8.0;;;2.4;;
45314;SDS011;31051;51.540;5.852;2023-10-19T13:12:20;7.2;;;2.2;;
45314;SDS011;31051;51.540;5.852;2023-10-19T13:25:09;8.0;;;2.4;;
45314;SDS011;31051;51.540;5.852;2023-10-19T13:37:57;8.9;;;2.6;;
45314;SDS011;31051;51.540;5.852;2023-10-19T13:50:46;8.6;;;2.7;;
45314;SDS011;31051;51.540;5.852;2023-10-19T14:03:46;9.0;;;3.0;;
45314;SDS011;31051;51.540;5.852;2023-10-19T14:16:44;10.6;;;3.7;;
45314;SDS011;31051;51.540;5.852;2023-10-19T14:29:34;9.8;;;3.8;;
45314;SDS011;31051;51.540;5.852;2023-10-19T14:42:32;10.5;;;4.0;;
45314;SDS011;31051;51.540;5.852;2023-10-19T14:55:20;8.0;;;3.3;;
45314;SDS011;31051;51.540;5.852;2023-10-19T15:08:09;10.0;;;4.0;;
45314;SDS011;31051;51.540;5.852;2023-10-19T15:20:58;11.7;;;4.1;;
45314;SDS011;31051;51.540;5.852;2023-10-19T15:33:57;9.9;;;4.3;;
45314;SDS011;31051;51.540;5.852;2023-10-19T15:46:57;8.2;;;3.8;;
45314;SDS011;31051;51.540;5.852;2023-10-19T15:59:56;8.4;;;3.6;;
45314;SDS011;31051;51.540;5.852;2023-10-19T16:12:54;9.6;;;3.6;;
45314;SDS011;31051;51.540;5.852;2023-10-19T16:25:44;8.1;;;3.0;;
45314;SDS011;31051;51.540;5.852;2023-10-19T16:38:43;7.8;;;3.0;;
45314;SDS011;31051;51.540;5.852;2023-10-19T16:51:43;8.4;;;3.2;;
45314;SDS011;31051;51.540;5.852;2023-10-19T17:04:42;8.0;;;3.6;;
45314;SDS011;31051;51.540;5.852;2023-10-19T17:17:41;7.1;;;3.2;;
45314;SDS011;31051;51.540;5.852;2023-10-19T17:30:41;6.8;;;2.8;;
45314;SDS011;31051;51.540;5.852;2023-10-19T17:43:39;6.6;;;3.0;;
45314;SDS011;31051;51.540;5.852;2023-10-19T17:56:28;7.2;;;4.1;;
45314;SDS011;31051;51.540;5.852;2023-10-19T18:09:28;8.1;;;5.7;;
45314;SDS011;31051;51.540;5.852;2023-10-19T18:22:27;10.5;;;6.0;;
45314;SDS011;31051;51.540;5.852;2023-10-19T18:35:27;8.1;;;5.3;;
45314;SDS011;31051;51.540;5.852;2023-10-19T18:48:26;9.4;;;6.5;;
45314;SDS011;31051;51.540;5.852;2023-10-19T19:01:25;7.0;;;4.9;;
45314;SDS011;31051;51.540;5.852;2023-10-19T19:14:25;6.7;;;4.9;;
45314;SDS011;31051;51.540;5.852;2023-10-19T19:27:24;7.3;;;5.3;;
45314;SDS011;31051;51.540;5.852;2023-10-19T19:40:24;7.0;;;5.5;;
45314;SDS011;31051;51.540;5.852;2023-10-19T19:53:23;8.4;;;6.1;;
45314;SDS011;31051;51.540;5.852;2023-10-19T20:06:22;9.0;;;7.0;;
45314;SDS011;31051;51.540;5.852;2023-10-19T20:19:22;10.8;;;9.6;;
45314;SDS011;31051;51.540;5.852;2023-10-19T20:32:21;12.8;;;11.2;;
45314;SDS011;31051;51.540;5.852;2023-10-19T20:45:20;11.9;;;10.3;;
45314;SDS011;31051;51.540;5.852;2023-10-19T20:58:20;11.8;;;10.5;;
45314;SDS011;31051;51.540;5.852;2023-10-19T21:11:19;10.0;;;8.6;;
45314;SDS011;31051;51.540;5.852;2023-10-19T21:24:18;9.3;;;8.1;;
45314;SDS011;31051;51.540;5.852;2023-10-19T21:37:18;10.8;;;9.2;;
45314;SDS011;31051;51.540;5.852;2023-10-19T21:50:17;10.8;;;9.8;;
45314;SDS011;31051;51.540;5.852;2023-10-19T22:03:16;8.5;;;7.5;;
45314;SDS011;31051;51.540;5.852;2023-10-19T22:16:05;8.2;;;7.4;;
45314;SDS011;31051;51.540;5.852;2023-10-19T22:29:04;8.5;;;7.7;;
45314;SDS011;31051;51.540;5.852;2023-10-19T22:42:04;9.6;;;8.5;;
45314;SDS011;31051;51.540;5.852;2023-10-19T22:55:03;7.4;;;6.8;;
45314;SDS011;31051;51.540;5.852;2023-10-19T23:08:02;7.3;;;6.6;;
45314;SDS011;31051;51.540;5.852;2023-10-19T23:21:02;7.2;;;6.5;;
45314;SDS011;31051;51.540;5.852;2023-10-19T23:34:01;7.2;;;6.6;;
45314;SDS011;31051;51.540;5.852;2023-10-19T23:47:01;7.6;;;7.0;;
